Time;durP1;ratioP1;P1;durP2;ratioP2;P2;SDS_P1;SDS_P2;PMS_P1;PMS_P2;Temp;Humidity;BMP_temperature;BMP_pressure;BME280_temperature;BME280_humidity;BME280_pressure;Samples;Min_cycle;Max_cycle;Signal;HPM_P1;HPM_P2
2023/08/11 00:02:37;;;;;;;;;;;21.20;81.80;;;;;;4154760;28;19935;-54
2023/08/11 00:05:18;;;;;;;;;;;21.10;81.00;;;;;;4153135;28;19932;-56
2023/08/11 00:07:58;;;;;;;;;;;21.10;80.90;;;;;;4151822;28;20384;-54
2023/08/11 00:10:39;;;;;;;;;;;21.10;80.90;;;;;;4127352;28;19936;-55
2023/08/11 00:13:20;;;;;;;;;;;21.10;81.00;;;;;;4153804;28;20407;-56
2023/08/11 00:16:03;;;;;;;;;;;21.10;81.10;;;;;;4140633;28;19932;-52
2023/08/11 00:18:46;;;;;;;;;;;21.10;81.10;;;;;;4154212;28;20303;-52
2023/08/11 00:21:27;;;;;;;;;;;21.10;81.10;;;;;;4141349;28;20038;-55
2023/08/11 00:24:07;;;;;;;;;;;21.10;81.10;;;;;;4141768;28;19932;-51
2023/08/11 00:26:48;;;;;;;;;;;21.10;82.00;;;;;;4153780;28;19944;-54
2023/08/11 00:29:31;;;;;;;;;;;21.10;81.20;;;;;;4154435;28;19936;-52
2023/08/11 00:32:13;;;;;;;;;;;21.10;81.30;;;;;;4154412;28;20064;-54
2023/08/11 00:34:55;;;;;;;;;;;21.10;81.40;;;;;;4138051;28;19932;-53
2023/08/11 00:37:36;;;;;;;;;;;21.10;81.40;;;;;;4154238;28;19935;-51
2023/08/11 00:40:17;;;;;;;;;;;21.10;81.50;;;;;;4139364;28;20060;-52
2023/08/11 00:42:57;;;;;;;;;;;21.10;82.40;;;;;;4135230;28;19932;-54
2023/08/11 00:45:38;;;;;;;;;;;21.10;81.50;;;;;;4152886;28;20038;-51
2023/08/11 00:48:21;;;;;;;;;;;21.10;81.60;;;;;;4153777;28;20391;-55
2023/08/11 00:51:05;;;;;;;;;;;21.10;81.70;;;;;;4141381;28;19932;-53
2023/08/11 00:53:46;;;;;;;;;;;21.10;81.70;;;;;;4152979;28;19933;-54
2023/08/11 00:56:27;;;;;;;;;;;21.10;81.70;;;;;;4153889;28;19932;-54
2023/08/11 00:59:09;;;;;;;;;;;21.10;81.80;;;;;;4154119;28;20658;-53
2023/08/11 01:01:50;;;;;;;;;;;21.10;81.80;;;;;;4153666;28;19932;-52
2023/08/11 01:04:31;;;;;;;;;;;21.00;81.80;;;;;;4154785;28;19979;-56
2023/08/11 01:07:17;;;;;;;;;;;21.10;81.90;;;;;;4155615;28;19952;-56
2023/08/11 01:10:03;;;;;;;;;;;21.00;81.90;;;;;;4156450;28;19936;-56
2023/08/11 01:12:49;;;;;;;;;;;21.10;82.00;;;;;;4156719;28;19936;-56
2023/08/11 01:15:31;;;;;;;;;;;21.10;82.00;;;;;;4156024;28;19936;-57
2023/08/11 01:18:13;;;;;;;;;;;21.00;81.90;;;;;;4157054;28;19986;-57
2023/08/11 01:20:55;;;;;;;;;;;21.10;82.00;;;;;;4144975;28;20425;-56
2023/08/11 01:23:38;;;;;;;;;;;21.10;82.10;;;;;;4140571;28;19951;-52
2023/08/11 01:26:19;;;;;;;;;;;21.10;82.00;;;;;;4128546;28;19994;-56
2023/08/11 01:29:00;;;;;;;;;;;21.00;82.00;;;;;;4140037;28;20076;-55
2023/08/11 01:31:41;;;;;;;;;;;21.00;82.00;;;;;;4140363;28;20023;-55
2023/08/11 01:34:22;;;;;;;;;;;21.00;82.00;;;;;;4172739;28;20028;-56
2023/08/11 01:37:03;;;;;;;;;;;21.00;82.10;;;;;;4153108;28;19936;-56
2023/08/11 01:39:45;;;;;;;;;;;21.00;82.10;;;;;;4160666;28;20399;-55
2023/08/11 01:42:26;;;;;;;;;;;21.00;82.10;;;;;;4164191;28;19933;-55
2023/08/11 01:45:07;;;;;;;;;;;21.00;82.10;;;;;;4156622;28;19936;-57
2023/08/11 01:47:49;;;;;;;;;;;21.00;82.20;;;;;;4156826;28;20543;-56
2023/08/11 01:50:31;;;;;;;;;;;21.00;82.20;;;;;;4156402;28;19940;-54
2023/08/11 01:53:12;;;;;;;;;;;21.00;82.20;;;;;;4156356;28;20063;-54
2023/08/11 01:55:54;;;;;;;;;;;21.00;83.10;;;;;;4156396;28;19935;-51
2023/08/11 01:58:36;;;;;;;;;;;21.00;82.20;;;;;;4155604;28;19936;-52
2023/08/11 02:01:17;;;;;;;;;;;21.00;82.30;;;;;;4138371;28;19933;-52
2023/08/11 02:03:58;;;;;;;;;;;21.00;82.30;;;;;;4156287;28;20036;-55
2023/08/11 02:06:39;;;;;;;;;;;21.00;82.30;;;;;;4155270;28;19932;-54
2023/08/11 02:09:20;;;;;;;;;;;21.00;82.30;;;;;;4150483;28;20281;-55
2023/08/11 02:12:02;;;;;;;;;;;21.00;82.30;;;;;;4155700;28;19936;-53
2023/08/11 02:14:43;;;;;;;;;;;21.00;82.30;;;;;;4155223;28;19932;-55
2023/08/11 02:17:24;;;;;;;;;;;20.90;82.30;;;;;;4150230;28;19979;-53
2023/08/11 02:20:17;;;;;;;;;;;20.90;83.10;;;;;;4155847;28;19950;-54
2023/08/11 02:22:58;;;;;;;;;;;20.90;82.30;;;;;;4154799;28;19947;-54
2023/08/11 02:25:40;;;;;;;;;;;20.90;82.30;;;;;;4155414;28;20063;-54
2023/08/11 02:28:22;;;;;;;;;;;20.90;82.30;;;;;;4155161;28;20364;-54
2023/08/11 02:31:03;;;;;;;;;;;20.90;82.30;;;;;;4170587;28;19935;-55
2023/08/11 02:33:44;;;;;;;;;;;20.90;82.30;;;;;;4172233;28;19959;-56
2023/08/11 02:36:25;;;;;;;;;;;20.90;82.30;;;;;;4159198;28;19932;-51
2023/08/11 02:39:08;;;;;;;;;;;20.90;82.40;;;;;;4171352;28;20013;-54
2023/08/11 02:41:49;;;;;;;;;;;20.90;82.40;;;;;;4172062;28;19974;-53
2023/08/11 02:44:31;;;;;;;;;;;20.90;82.40;;;;;;4172012;28;20062;-53
2023/08/11 02:47:12;;;;;;;;;;;20.90;82.40;;;;;;4171601;28;19935;-57
2023/08/11 02:49:52;;;;;;;;;;;20.80;82.30;;;;;;4159624;28;19932;-56
2023/08/11 02:52:34;;;;;;;;;;;20.90;82.40;;;;;;4159332;28;20307;-57
2023/08/11 02:55:15;;;;;;;;;;;20.90;83.30;;;;;;4171627;28;19995;-57
2023/08/11 02:57:56;;;;;;;;;;;20.90;82.40;;;;;;4172030;28;19951;-57
2023/08/11 03:00:38;;;;;;;;;;;20.80;82.40;;;;;;4171751;28;19932;-57
2023/08/11 03:03:19;;;;;;;;;;;20.90;82.50;;;;;;4170806;28;19940;-57
2023/08/11 03:06:00;;;;;;;;;;;20.80;82.40;;;;;;4170568;28;20087;-58
2023/08/11 03:08:41;;;;;;;;;;;20.80;82.30;;;;;;4159482;28;20437;-58
2023/08/11 03:11:23;;;;;;;;;;;20.80;82.30;;;;;;4158507;28;19939;-58
2023/08/11 03:14:04;;;;;;;;;;;20.80;82.30;;;;;;4159001;28;20290;-58
2023/08/11 03:16:46;;;;;;;;;;;20.80;82.30;;;;;;4159086;28;19936;-58
2023/08/11 03:19:27;;;;;;;;;;;20.80;82.30;;;;;;4170869;28;19982;-58
2023/08/11 03:22:09;;;;;;;;;;;20.80;82.20;;;;;;4159016;28;20399;-58
2023/08/11 03:24:50;;;;;;;;;;;20.80;82.30;;;;;;4159108;28;19931;-58
2023/08/11 03:27:30;;;;;;;;;;;20.80;82.20;;;;;;4159329;28;20462;-57
2023/08/11 03:30:12;;;;;;;;;;;20.80;82.20;;;;;;4159183;28;20292;-57
2023/08/11 03:32:57;;;;;;;;;;;20.80;82.20;;;;;;4147575;28;19943;-57
2023/08/11 03:35:51;;;;;;;;;;;20.80;83.00;;;;;;4157926;28;20299;-57
2023/08/11 03:38:32;;;;;;;;;;;20.70;82.20;;;;;;4158987;28;20013;-57
2023/08/11 03:41:13;;;;;;;;;;;20.70;82.10;;;;;;4158731;28;19932;-56
2023/08/11 03:43:54;;;;;;;;;;;20.70;82.20;;;;;;4158552;28;19977;-56
2023/08/11 03:46:36;;;;;;;;;;;20.70;82.20;;;;;;4133494;28;20392;-57
2023/08/11 03:49:18;;;;;;;;;;;20.70;83.10;;;;;;4153756;28;20467;-57
2023/08/11 03:51:59;;;;;;;;;;;20.70;82.40;;;;;;4145293;28;19963;-57
2023/08/11 03:54:40;;;;;;;;;;;20.70;82.40;;;;;;4138583;28;20293;-57
2023/08/11 03:57:28;;;;;;;;;;;20.70;82.40;;;;;;4142368;28;20006;-57
2023/08/11 04:00:11;;;;;;;;;;;20.70;82.40;;;;;;4153562;28;19936;-57
2023/08/11 04:02:55;;;;;;;;;;;20.70;82.40;;;;;;4154749;28;20007;-57
2023/08/11 04:05:38;;;;;;;;;;;20.70;82.50;;;;;;4142148;28;20431;-57
2023/08/11 04:08:20;;;;;;;;;;;20.70;82.50;;;;;;4154227;28;19936;-56
2023/08/11 04:11:02;;;;;;;;;;;20.70;82.50;;;;;;4134375;28;20056;-57
2023/08/11 04:13:43;;;;;;;;;;;20.70;82.40;;;;;;4147598;28;20058;-57
2023/08/11 04:16:25;;;;;;;;;;;20.70;82.50;;;;;;4157774;28;20050;-57
2023/08/11 04:19:06;;;;;;;;;;;20.60;83.30;;;;;;4171037;28;19993;-57
2023/08/11 04:21:48;;;;;;;;;;;20.70;82.40;;;;;;4170383;28;19936;-57
2023/08/11 04:24:28;;;;;;;;;;;20.60;82.40;;;;;;4147321;28;19978;-57
2023/08/11 04:27:09;;;;;;;;;;;20.60;82.30;;;;;;4158562;28;20272;-55
2023/08/11 04:29:50;;;;;;;;;;;20.60;82.50;;;;;;4146531;28;20078;-58
2023/08/11 04:32:32;;;;;;;;;;;20.60;82.40;;;;;;4158230;28;19943;-56
2023/08/11 04:35:13;;;;;;;;;;;20.60;82.60;;;;;;4169483;28;20778;-57
2023/08/11 04:37:58;;;;;;;;;;;20.70;82.80;;;;;;4158257;28;19936;-56
2023/08/11 04:40:41;;;;;;;;;;;20.60;82.80;;;;;;4184342;28;19931;-56
2023/08/11 04:43:23;;;;;;;;;;;20.70;82.80;;;;;;4161330;28;19932;-56
2023/08/11 04:46:04;;;;;;;;;;;20.60;82.70;;;;;;4144951;28;20511;-54
2023/08/11 04:48:46;;;;;;;;;;;20.60;82.80;;;;;;4143144;28;19937;-53
2023/08/11 04:51:27;;;;;;;;;;;20.60;82.80;;;;;;4156877;28;20014;-53
2023/08/11 04:54:11;;;;;;;;;;;20.60;82.80;;;;;;4130273;28;19933;-50
2023/08/11 04:56:52;;;;;;;;;;;20.60;82.80;;;;;;4129916;28;19940;-53
2023/08/11 04:59:33;;;;;;;;;;;20.60;82.80;;;;;;4145093;28;20454;-54
2023/08/11 05:02:14;;;;;;;;;;;20.60;82.90;;;;;;4157081;28;19931;-54
2023/08/11 05:04:55;;;;;;;;;;;20.60;82.80;;;;;;4152837;28;19936;-54
2023/08/11 05:07:36;;;;;;;;;;;20.60;82.80;;;;;;4154641;28;19936;-55
2023/08/11 05:10:18;;;;;;;;;;;20.60;82.90;;;;;;4140625;28;20456;-53
2023/08/11 05:12:58;;;;;;;;;;;20.60;83.80;;;;;;4138325;28;19933;-51
2023/08/11 05:15:40;;;;;;;;;;;20.60;82.80;;;;;;4150682;28;19932;-54
2023/08/11 05:18:20;;;;;;;;;;;20.60;82.80;;;;;;4168399;28;20063;-52
2023/08/11 05:21:01;;;;;;;;;;;20.60;82.80;;;;;;4173657;28;20440;-54
2023/08/11 05:23:42;;;;;;;;;;;20.60;82.80;;;;;;4164462;28;19994;-54
2023/08/11 05:26:24;;;;;;;;;;;20.70;82.80;;;;;;4153500;28;19952;-52
2023/08/11 05:29:05;;;;;;;;;;;20.70;82.80;;;;;;4156791;28;20390;-54
2023/08/11 05:31:46;;;;;;;;;;;20.70;82.80;;;;;;4150579;28;20074;-57
2023/08/11 05:34:26;;;;;;;;;;;20.70;82.70;;;;;;4140077;28;19933;-57
2023/08/11 05:37:07;;;;;;;;;;;20.70;82.70;;;;;;4158468;28;19932;-58
2023/08/11 05:39:49;;;;;;;;;;;20.70;82.60;;;;;;4173445;28;19931;-56
2023/08/11 05:42:31;;;;;;;;;;;20.70;82.50;;;;;;4171865;28;19935;-56
2023/08/11 05:45:12;;;;;;;;;;;20.80;82.60;;;;;;4155012;28;19932;-56
2023/08/11 05:47:55;;;;;;;;;;;20.80;83.40;;;;;;4155422;28;19936;-56
2023/08/11 05:50:35;;;;;;;;;;;20.80;82.50;;;;;;4155148;28;19932;-57
2023/08/11 05:53:16;;;;;;;;;;;20.80;82.50;;;;;;4156097;28;19936;-55
2023/08/11 05:55:56;;;;;;;;;;;20.80;82.50;;;;;;4150202;28;19936;-57
2023/08/11 05:58:38;;;;;;;;;;;20.80;82.50;;;;;;4141450;28;19933;-56
2023/08/11 06:01:19;;;;;;;;;;;20.90;82.50;;;;;;4140033;28;19984;-56
2023/08/11 06:04:00;;;;;;;;;;;20.90;82.40;;;;;;4139261;28;19932;-60
2023/08/11 06:06:41;;;;;;;;;;;21.00;82.30;;;;;;4155306;28;19936;-60
2023/08/11 06:09:22;;;;;;;;;;;21.00;82.20;;;;;;4143451;28;20265;-60
2023/08/11 06:12:03;;;;;;;;;;;21.10;82.30;;;;;;4157412;28;19932;-60
2023/08/11 06:14:45;;;;;;;;;;;21.20;82.00;;;;;;4157497;28;19932;-60
2023/08/11 06:17:26;;;;;;;;;;;21.20;81.80;;;;;;4152938;28;19951;-58
2023/08/11 06:20:10;;;;;;;;;;;21.30;81.60;;;;;;4158510;28;19932;-59
2023/08/11 06:22:53;;;;;;;;;;;21.40;81.50;;;;;;4171878;28;19978;-59
2023/08/11 06:25:34;;;;;;;;;;;21.40;81.20;;;;;;4136056;28;19936;-59
2023/08/11 06:28:15;;;;;;;;;;;21.40;81.80;;;;;;4144013;28;19972;-59
2023/08/11 06:30:57;;;;;;;;;;;21.50;80.90;;;;;;4143388;28;19951;-59
2023/08/11 06:33:39;;;;;;;;;;;21.60;80.60;;;;;;4146120;28;19936;-59
2023/08/11 06:36:19;;;;;;;;;;;21.60;81.20;;;;;;4154862;28;20403;-59
2023/08/11 06:39:02;;;;;;;;;;;21.60;80.20;;;;;;4151309;28;19936;-59
2023/08/11 06:41:42;;;;;;;;;;;21.70;79.90;;;;;;4148235;28;20300;-60
2023/08/11 06:44:24;;;;;;;;;;;21.70;80.60;;;;;;4154707;28;20957;-60
2023/08/11 06:47:06;;;;;;;;;;;21.70;79.30;;;;;;4153609;28;19952;-58
2023/08/11 06:49:47;;;;;;;;;;;21.80;79.20;;;;;;4148891;28;20060;-59
2023/08/11 06:52:27;;;;;;;;;;;21.80;79.90;;;;;;4155489;28;19935;-59
2023/08/11 06:55:08;;;;;;;;;;;21.80;78.80;;;;;;4139367;28;20384;-60
2023/08/11 06:57:49;;;;;;;;;;;21.90;78.80;;;;;;4151000;28;20399;-59
2023/08/11 07:00:30;;;;;;;;;;;21.90;78.70;;;;;;4144607;28;20323;-59
2023/08/11 07:03:12;;;;;;;;;;;21.90;78.50;;;;;;4156712;28;19936;-59
2023/08/11 07:05:53;;;;;;;;;;;21.90;78.40;;;;;;4155736;28;19933;-59
2023/08/11 07:08:34;;;;;;;;;;;21.90;78.30;;;;;;4154960;28;20018;-60
2023/08/11 07:11:15;;;;;;;;;;;21.90;78.20;;;;;;4151990;28;19936;-59
2023/08/11 07:13:57;;;;;;;;;;;22.00;78.20;;;;;;4126632;28;19952;-60
2023/08/11 07:16:37;;;;;;;;;;;22.00;78.10;;;;;;4148537;28;19971;-60
2023/08/11 07:19:19;;;;;;;;;;;22.10;78.00;;;;;;4148974;28;19932;-59
2023/08/11 07:22:00;;;;;;;;;;;22.10;78.10;;;;;;4138444;28;20649;-59
2023/08/11 07:24:41;;;;;;;;;;;22.10;77.90;;;;;;4149457;28;20070;-60
2023/08/11 07:27:21;;;;;;;;;;;22.20;77.90;;;;;;4150278;28;20312;-61
2023/08/11 07:30:02;;;;;;;;;;;22.20;77.80;;;;;;4150657;28;20293;-59
2023/08/11 07:32:42;;;;;;;;;;;22.20;77.90;;;;;;4171458;28;19936;-59
2023/08/11 07:35:25;;;;;;;;;;;22.20;77.80;;;;;;4142302;28;19936;-59
2023/08/11 07:38:06;;;;;;;;;;;22.20;77.80;;;;;;4138224;28;20009;-60
2023/08/11 07:40:49;;;;;;;;;;;22.20;77.70;;;;;;4150322;28;19952;-60
2023/08/11 07:43:29;;;;;;;;;;;22.30;78.70;;;;;;4149580;28;20088;-62
2023/08/11 07:46:10;;;;;;;;;;;22.30;77.70;;;;;;4140418;28;19933;-60
2023/08/11 07:48:51;;;;;;;;;;;22.30;77.70;;;;;;4138560;28;20308;-59
2023/08/11 07:51:33;;;;;;;;;;;22.30;77.70;;;;;;4140773;28;19978;-60
2023/08/11 07:54:14;;;;;;;;;;;22.30;77.60;;;;;;4139733;28;19936;-60
2023/08/11 07:56:55;;;;;;;;;;;22.30;77.60;;;;;;4128814;28;19937;-59
2023/08/11 07:59:36;;;;;;;;;;;22.30;77.70;;;;;;4153667;28;19932;-59
2023/08/11 08:02:17;;;;;;;;;;;22.30;78.60;;;;;;4136655;28;19931;-60
2023/08/11 08:04:58;;;;;;;;;;;22.30;77.70;;;;;;4153688;28;19932;-59
2023/08/11 08:07:52;;;;;;;;;;;22.30;77.70;;;;;;4137609;28;20071;-58
2023/08/11 08:10:33;;;;;;;;;;;22.40;77.80;;;;;;4153771;28;19948;-59
2023/08/11 08:13:15;;;;;;;;;;;22.30;77.80;;;;;;4152763;28;19932;-58
2023/08/11 08:15:55;;;;;;;;;;;22.40;77.90;;;;;;4148812;28;19937;-59
2023/08/11 08:18:36;;;;;;;;;;;22.40;77.80;;;;;;4143159;28;20002;-58
2023/08/11 08:21:17;;;;;;;;;;;22.40;78.00;;;;;;4153143;28;19932;-59
2023/08/11 08:23:59;;;;;;;;;;;22.40;78.00;;;;;;4163352;28;19967;-59
2023/08/11 08:26:40;;;;;;;;;;;22.40;77.90;;;;;;4162467;28;19932;-59
2023/08/11 08:29:21;;;;;;;;;;;22.40;77.80;;;;;;4170388;28;19982;-58
2023/08/11 08:32:01;;;;;;;;;;;22.50;77.90;;;;;;4169784;28;20003;-56
2023/08/11 08:34:43;;;;;;;;;;;22.50;77.90;;;;;;4152132;28;19979;-58
2023/08/11 08:37:25;;;;;;;;;;;22.60;78.10;;;;;;4140730;28;19931;-59
2023/08/11 08:40:08;;;;;;;;;;;22.50;78.00;;;;;;4146642;28;20038;-59
2023/08/11 08:42:49;;;;;;;;;;;22.50;78.00;;;;;;4138010;28;20403;-59
2023/08/11 08:45:30;;;;;;;;;;;22.60;78.90;;;;;;4137731;28;20018;-60
2023/08/11 08:48:15;;;;;;;;;;;22.60;77.90;;;;;;4153027;28;19938;-57
2023/08/11 08:50:56;;;;;;;;;;;22.60;78.10;;;;;;4147310;28;19936;-57
2023/08/11 08:53:37;;;;;;;;;;;22.70;78.00;;;;;;4151913;28;19931;-57
2023/08/11 08:56:20;;;;;;;;;;;22.70;78.00;;;;;;4128286;28;19932;-57
2023/08/11 08:59:01;;;;;;;;;;;22.80;78.20;;;;;;4152508;28;20327;-59
2023/08/11 09:01:42;;;;;;;;;;;22.80;78.20;;;;;;4151619;28;19932;-59
2023/08/11 09:04:23;;;;;;;;;;;22.80;78.00;;;;;;4170525;28;19991;-59
2023/08/11 09:07:04;;;;;;;;;;;22.80;77.90;;;;;;4155035;28;20399;-61
2023/08/11 09:09:45;;;;;;;;;;;22.80;78.00;;;;;;4169768;28;20477;-63
2023/08/11 09:12:27;;;;;;;;;;;22.90;77.80;;;;;;4170382;28;20047;-59
2023/08/11 09:15:10;;;;;;;;;;;22.90;77.70;;;;;;4161306;28;20022;-59
2023/08/11 09:17:51;;;;;;;;;;;23.00;77.50;;;;;;4148961;28;19936;-59
2023/08/11 09:20:32;;;;;;;;;;;23.00;77.20;;;;;;4169702;28;20325;-57
2023/08/11 09:23:16;;;;;;;;;;;23.00;77.00;;;;;;4169003;28;19931;-59
2023/08/11 09:25:57;;;;;;;;;;;23.10;76.80;;;;;;4165861;28;19936;-57
2023/08/11 09:28:40;;;;;;;;;;;23.10;76.50;;;;;;4155911;28;19931;-58
2023/08/11 09:31:21;;;;;;;;;;;23.10;77.10;;;;;;4139895;28;20296;-58
2023/08/11 09:34:11;;;;;;;;;;;23.10;76.90;;;;;;4155185;28;20071;-57
2023/08/11 09:36:51;;;;;;;;;;;23.20;75.90;;;;;;4166536;28;19936;-58
2023/08/11 09:39:32;;;;;;;;;;;23.20;75.90;;;;;;4155731;28;19936;-57
2023/08/11 09:42:15;;;;;;;;;;;23.20;76.60;;;;;;4143245;28;20446;-57
2023/08/11 09:44:57;;;;;;;;;;;23.30;76.00;;;;;;4140559;28;19936;-57
2023/08/11 09:47:38;;;;;;;;;;;23.30;75.30;;;;;;4140442;28;19952;-57
2023/08/11 09:50:19;;;;;;;;;;;23.30;75.40;;;;;;4140385;28;20392;-57
2023/08/11 09:53:00;;;;;;;;;;;23.40;75.40;;;;;;4139958;28;20380;-57
2023/08/11 09:55:41;;;;;;;;;;;23.40;75.30;;;;;;4155307;28;19940;-57
2023/08/11 09:58:24;;;;;;;;;;;23.40;75.20;;;;;;4153961;28;19982;-57
2023/08/11 10:01:08;;;;;;;;;;;23.50;75.00;;;;;;4142422;28;20289;-57
2023/08/11 10:04:02;;;;;;;;;;;23.50;75.00;;;;;;4154976;28;20304;-57
2023/08/11 10:06:44;;;;;;;;;;;23.50;75.00;;;;;;4155912;28;19936;-57
2023/08/11 10:09:26;;;;;;;;;;;23.60;74.90;;;;;;4140188;28;20278;-57
2023/08/11 10:12:07;;;;;;;;;;;23.60;74.70;;;;;;4154477;28;19947;-58
2023/08/11 10:14:49;;;;;;;;;;;23.60;74.60;;;;;;4153097;28;19936;-57
2023/08/11 10:17:31;;;;;;;;;;;23.60;74.50;;;;;;4153465;28;20739;-57
2023/08/11 10:20:12;;;;;;;;;;;23.70;74.60;;;;;;4153390;28;20070;-59
2023/08/11 10:22:53;;;;;;;;;;;23.70;74.50;;;;;;4141896;28;19935;-57
2023/08/11 10:25:34;;;;;;;;;;;23.80;74.30;;;;;;4155701;28;20391;-57
2023/08/11 10:28:15;;;;;;;;;;;23.70;74.30;;;;;;4140835;28;19933;-57
2023/08/11 10:30:57;;;;;;;;;;;23.80;74.30;;;;;;4154752;28;19982;-57
2023/08/11 10:33:41;;;;;;;;;;;23.80;74.20;;;;;;4154774;28;19932;-58
2023/08/11 10:36:23;;;;;;;;;;;23.80;74.10;;;;;;4145868;28;20705;-59
2023/08/11 10:39:05;;;;;;;;;;;23.90;74.10;;;;;;4155937;28;19936;-59
2023/08/11 10:41:46;;;;;;;;;;;23.90;74.20;;;;;;4150548;28;19932;-60
2023/08/11 10:44:34;;;;;;;;;;;23.90;74.10;;;;;;4157573;28;20408;-59
2023/08/11 10:47:18;;;;;;;;;;;23.90;74.00;;;;;;4155495;28;19932;-60
2023/08/11 10:50:01;;;;;;;;;;;24.00;73.90;;;;;;4145543;28;19933;-59
2023/08/11 10:52:42;;;;;;;;;;;24.00;73.80;;;;;;4154923;28;19975;-59
2023/08/11 10:55:23;;;;;;;;;;;24.00;73.70;;;;;;4155160;28;19935;-59
2023/08/11 10:58:10;;;;;;;;;;;24.10;73.80;;;;;;4154374;28;19932;-59
2023/08/11 11:00:50;;;;;;;;;;;24.10;73.80;;;;;;4153771;28;19932;-58
2023/08/11 11:03:32;;;;;;;;;;;24.10;73.70;;;;;;4155183;28;19933;-58
2023/08/11 11:06:15;;;;;;;;;;;24.20;73.60;;;;;;4139291;28;20076;-58
2023/08/11 11:08:56;;;;;;;;;;;24.20;73.60;;;;;;4128442;28;19933;-59
2023/08/11 11:11:37;;;;;;;;;;;24.20;73.50;;;;;;4136331;28;19932;-58
2023/08/11 11:14:18;;;;;;;;;;;24.30;73.50;;;;;;4154990;28;19998;-59
2023/08/11 11:16:59;;;;;;;;;;;24.30;73.40;;;;;;4154023;28;19936;-60
2023/08/11 11:19:41;;;;;;;;;;;24.30;73.30;;;;;;4154383;28;19936;-59
2023/08/11 11:22:25;;;;;;;;;;;24.40;73.30;;;;;;4171048;28;19940;-59
2023/08/11 11:25:06;;;;;;;;;;;24.40;73.30;;;;;;4170826;28;19932;-58
2023/08/11 11:27:48;;;;;;;;;;;24.40;73.20;;;;;;4162936;28;19935;-59
2023/08/11 11:30:29;;;;;;;;;;;24.50;73.10;;;;;;4141679;28;20434;-59
2023/08/11 11:33:10;;;;;;;;;;;24.50;73.00;;;;;;4170436;28;19931;-58
2023/08/11 11:35:51;;;;;;;;;;;24.50;73.00;;;;;;4170948;28;19948;-57
2023/08/11 11:38:33;;;;;;;;;;;24.60;72.90;;;;;;4157808;28;19999;-59
2023/08/11 11:41:15;;;;;;;;;;;24.60;72.90;;;;;;4162307;28;20022;-60
2023/08/11 11:43:56;;;;;;;;;;;24.60;72.90;;;;;;4139732;28;20292;-59
2023/08/11 11:46:37;;;;;;;;;;;24.70;72.90;;;;;;4154692;28;19932;-60
2023/08/11 11:49:18;;;;;;;;;;;24.70;73.70;;;;;;4150068;28;19932;-59
2023/08/11 11:52:10;;;;;;;;;;;24.70;72.70;;;;;;4153275;28;19932;-59
2023/08/11 11:54:53;;;;;;;;;;;24.80;72.70;;;;;;4153196;28;20034;-59
2023/08/11 11:57:34;;;;;;;;;;;24.70;72.50;;;;;;4153631;28;19979;-59
2023/08/11 12:00:18;;;;;;;;;;;24.80;72.40;;;;;;4132176;28;20392;-60
2023/08/11 12:02:59;;;;;;;;;;;24.80;72.30;;;;;;4121702;28;19936;-59
2023/08/11 12:05:40;;;;;;;;;;;24.90;72.20;;;;;;4137948;28;19933;-59
2023/08/11 12:08:24;;;;;;;;;;;24.90;72.80;;;;;;4141478;28;20055;-59
2023/08/11 12:11:06;;;;;;;;;;;24.90;71.60;;;;;;4140920;28;20575;-58
2023/08/11 12:13:47;;;;;;;;;;;25.00;71.60;;;;;;4149109;28;19933;-58
2023/08/11 12:16:29;;;;;;;;;;;25.00;71.30;;;;;;4164779;28;19932;-57
2023/08/11 12:19:10;;;;;;;;;;;25.00;71.30;;;;;;4143878;28;19932;-57
2023/08/11 12:21:51;;;;;;;;;;;25.00;71.00;;;;;;4152941;28;19936;-59
2023/08/11 12:24:31;;;;;;;;;;;25.10;70.60;;;;;;4163710;28;19952;-57
2023/08/11 12:27:13;;;;;;;;;;;25.10;70.40;;;;;;4152069;28;19932;-57
2023/08/11 12:29:54;;;;;;;;;;;25.10;70.40;;;;;;4140511;28;20044;-58
2023/08/11 12:32:35;;;;;;;;;;;25.10;70.30;;;;;;4164657;28;19975;-58
2023/08/11 12:35:16;;;;;;;;;;;25.20;70.10;;;;;;4154344;28;19932;-59
2023/08/11 12:37:57;;;;;;;;;;;25.20;69.90;;;;;;4152127;28;19979;-60
2023/08/11 12:40:38;;;;;;;;;;;25.20;70.40;;;;;;4152623;28;19936;-50
2023/08/11 12:43:21;;;;;;;;;;;25.30;69.40;;;;;;4149774;28;19940;-53
2023/08/11 12:46:01;;;;;;;;;;;25.30;69.40;;;;;;4152144;28;19932;-59
2023/08/11 12:48:43;;;;;;;;;;;25.30;69.20;;;;;;4137156;28;20289;-57
2023/08/11 12:51:24;;;;;;;;;;;25.30;69.20;;;;;;4151789;28;20398;-56
2023/08/11 12:54:05;;;;;;;;;;;25.30;69.10;;;;;;4151175;28;19931;-56
2023/08/11 12:56:48;;;;;;;;;;;25.40;69.00;;;;;;4153285;28;19951;-57
2023/08/11 12:59:30;;;;;;;;;;;25.40;69.00;;;;;;4153142;28;19931;-55
2023/08/11 13:02:11;;;;;;;;;;;25.40;68.90;;;;;;4160952;28;19932;-54
2023/08/11 13:04:53;;;;;;;;;;;25.40;68.80;;;;;;4141737;28;19992;-54
2023/08/11 13:07:33;;;;;;;;;;;25.40;69.00;;;;;;4156897;28;19932;-53
2023/08/11 13:10:16;;;;;;;;;;;25.40;69.00;;;;;;4143616;28;24186;-53
2023/08/11 13:12:57;;;;;;;;;;;25.40;69.10;;;;;;4139257;28;19941;-53
2023/08/11 13:15:39;;;;;;;;;;;25.40;69.00;;;;;;4156547;28;20028;-54
2023/08/11 13:18:20;;;;;;;;;;;25.40;69.10;;;;;;4155140;28;19936;-53
2023/08/11 13:21:01;;;;;;;;;;;25.40;68.70;;;;;;4156334;28;20685;-54
2023/08/11 13:23:42;;;;;;;;;;;25.40;69.00;;;;;;4156764;28;19932;-55
2023/08/11 13:26:22;;;;;;;;;;;25.50;69.10;;;;;;4154677;28;19936;-54
2023/08/11 13:29:03;;;;;;;;;;;25.50;69.10;;;;;;4154048;28;19967;-55
2023/08/11 13:31:45;;;;;;;;;;;25.60;69.10;;;;;;4154296;28;19944;-56
2023/08/11 13:34:26;;;;;;;;;;;25.60;69.00;;;;;;4156007;28;20448;-55
2023/08/11 13:37:07;;;;;;;;;;;25.60;68.90;;;;;;4155113;28;20292;-52
2023/08/11 13:39:48;;;;;;;;;;;25.60;68.80;;;;;;4154180;28;19974;-51
2023/08/11 13:42:29;;;;;;;;;;;25.70;68.80;;;;;;4156100;28;19936;-49
2023/08/11 13:45:10;;;;;;;;;;;25.70;68.70;;;;;;4155214;28;20051;-52
2023/08/11 13:47:53;;;;;;;;;;;25.70;69.60;;;;;;4145389;28;20391;-54
2023/08/11 13:50:34;;;;;;;;;;;25.80;68.80;;;;;;4156623;28;19952;-50
2023/08/11 13:53:15;;;;;;;;;;;25.80;68.80;;;;;;4156038;28;20022;-50
2023/08/11 13:55:55;;;;;;;;;;;25.80;68.70;;;;;;4154561;28;20508;-50
2023/08/11 13:58:36;;;;;;;;;;;25.80;68.70;;;;;;4139646;28;20030;-52
2023/08/11 14:01:17;;;;;;;;;;;25.80;68.50;;;;;;4139854;28;19952;-53
2023/08/11 14:03:59;;;;;;;;;;;25.90;68.60;;;;;;4139763;28;19936;-52
2023/08/11 14:06:40;;;;;;;;;;;25.90;68.60;;;;;;4138867;28;19938;-51
2023/08/11 14:09:20;;;;;;;;;;;25.90;68.60;;;;;;4139965;28;19932;-52
2023/08/11 14:12:01;;;;;;;;;;;25.90;68.60;;;;;;4127593;28;19937;-53
2023/08/11 14:14:42;;;;;;;;;;;25.90;68.60;;;;;;4127099;28;19937;-53
2023/08/11 14:17:22;;;;;;;;;;;26.00;68.60;;;;;;4133116;28;20339;-53
2023/08/11 14:20:04;;;;;;;;;;;26.00;68.70;;;;;;4154433;28;20044;-54
2023/08/11 14:22:45;;;;;;;;;;;26.00;68.70;;;;;;4150513;28;19932;-52
2023/08/11 14:25:26;;;;;;;;;;;26.00;68.70;;;;;;4152945;28;20059;-59
2023/08/11 14:28:07;;;;;;;;;;;26.00;68.80;;;;;;4153076;28;19952;-57
2023/08/11 14:30:48;;;;;;;;;;;26.00;68.80;;;;;;4120023;28;20083;-53
2023/08/11 14:33:29;;;;;;;;;;;26.00;68.90;;;;;;4149826;28;19932;-54
2023/08/11 14:36:12;;;;;;;;;;;26.00;68.90;;;;;;4153744;28;20055;-52
2023/08/11 14:38:53;;;;;;;;;;;26.10;69.90;;;;;;4154888;28;19976;-57
2023/08/11 14:41:34;;;;;;;;;;;26.10;69.00;;;;;;4154463;28;20304;-57
2023/08/11 14:44:15;;;;;;;;;;;26.00;69.00;;;;;;4151834;28;19932;-57
2023/08/11 14:46:58;;;;;;;;;;;26.10;69.10;;;;;;4138807;28;20001;-57
2023/08/11 14:49:39;;;;;;;;;;;26.10;69.20;;;;;;4152207;28;19932;-54
2023/08/11 14:52:22;;;;;;;;;;;26.10;69.30;;;;;;4138079;28;19945;-52
2023/08/11 14:55:02;;;;;;;;;;;26.10;70.30;;;;;;4158917;28;19931;-54
2023/08/11 14:57:43;;;;;;;;;;;26.10;69.50;;;;;;4163397;28;19936;-53
2023/08/11 15:00:24;;;;;;;;;;;26.10;69.60;;;;;;4148957;28;19998;-56
2023/08/11 15:03:06;;;;;;;;;;;26.10;69.70;;;;;;4151541;28;20339;-54
2023/08/11 15:05:46;;;;;;;;;;;26.10;69.80;;;;;;4151385;28;19936;-51
2023/08/11 15:08:28;;;;;;;;;;;26.10;69.90;;;;;;4171056;28;19931;-51
2023/08/11 15:11:09;;;;;;;;;;;26.10;70.90;;;;;;4169339;28;19931;-53
2023/08/11 15:13:50;;;;;;;;;;;26.10;70.00;;;;;;4162491;28;19932;-51
2023/08/11 15:16:31;;;;;;;;;;;26.10;70.00;;;;;;4170591;28;19935;-57
2023/08/11 15:19:12;;;;;;;;;;;26.10;70.00;;;;;;4167537;28;19939;-57
2023/08/11 15:21:53;;;;;;;;;;;26.10;70.10;;;;;;4149554;28;19932;-58
2023/08/11 15:24:35;;;;;;;;;;;26.10;70.30;;;;;;4154148;28;20423;-56
2023/08/11 15:27:18;;;;;;;;;;;26.10;70.40;;;;;;4154745;28;19936;-57
2023/08/11 15:29:58;;;;;;;;;;;26.10;70.40;;;;;;4124240;28;19936;-51
2023/08/11 15:32:39;;;;;;;;;;;26.10;70.50;;;;;;4130694;28;19940;-57
2023/08/11 15:35:22;;;;;;;;;;;26.10;70.50;;;;;;4147762;28;19932;-53
2023/08/11 15:38:05;;;;;;;;;;;26.10;70.50;;;;;;4149225;28;19932;-54
2023/08/11 15:40:48;;;;;;;;;;;26.20;70.60;;;;;;4170687;28;19947;-53